Waynesville, OH (45068)

8:45 AM EST on February 10, 2016 (GMT -0500)
Rivers Edge | | Change Station
CLOSE
Current Station
Personal Weather Station
Location: Corwin, OH
Elevation: 840 ft
Nearby Weather Stations
Active Advisory: Winter Weather Advisory Active Notice: Local Storm Report

Elev 840 ft 39.53 °N, 84.06 °W | Updated 4 seconds ago

Snow
Snow
14.5 °F
Feels Like 4 °F
N
8.0
Wind Variable Wind from SW

Today
High -- | Low -- °F
--% Chance of Precip.
Yesterday
High -- | Low -- °F
Precip. -- in
Pressure 29.93 in
Visibility 1.5 miles
Clouds Few 1500 ft
Scattered Clouds 2000 ft
Overcast 2600 ft
Windchill 4 °F
Dew Point 12 °F
Humidity 91%
Rainfall 0.15 in
Snow Depth Not available.
7:34 AM 6:06 PM
Waxing Crescent, 5% visible
SPECI KMGY 101333Z AUTO 24009KT 1 1/2SM -SN FEW015 SCT020 OVC026 M10/M13 A2993 RMK AO2 P0000 T11001128
Pressure 29.93 in
Visibility 1.5 miles
Clouds Few 1500 ft
Scattered Clouds 2000 ft
Overcast 2600 ft
Windchill 4 °F
Dew Point 12 °F
Humidity 91%
Rainfall 0.15 in
Snow Depth Not available.
7:34 AM 6:06 PM
Waxing Crescent, 5% visible
SPECI KMGY 101333Z AUTO 24009KT 1 1/2SM -SN FEW015 SCT020 OVC026 M10/M13 A2993 RMK AO2 P0000 T11001128

10-Day Weather Forecast

Almanac

Astronomy

Feb. 10, 2016 Rise Set
Actual Time
Civil Twilight
Nautical Twilight
Astronomical Twilight
Moon
Length of Visible Light
Length of Day
Tomorrow will be .
, % of the Moon is Illuminated

Today's Extremes

State Highs State Lows

Community

WunderPhotos

Upload Photos

1,891,845 photos uploaded!

WunderBlog® & News

Nearby

Air Quality

  Air Quality AQ Index Pollutant
Not available.

Snow Depth

Station Depth Elevation

Earthquake Activity

City Distance Mag. Time & Date
Minimum magnitude displayed is 2.5.

Coastal Water Temperatures

Place Temperature

Stations

Nearby Weather Stations

Station Location Temp. Windchill Dew Point Humidity Wind Precip. Elev Updated Type
                   

Watches & Warnings

Winter Weather Advisory
Issued: 3:51 AM EST Feb. 10, 2016 – National Weather Service

... Winter Weather Advisory remains in effect until 10 am EST this
morning...

* timing... scattered snow showers through this morning.

* Accumulations... snow accumulations of up to 1 inch.

* Impacts... travel difficulties are expected due to reduced
visibilities and snow accumulations.

Precautionary/preparedness actions...

Remember... a Winter Weather Advisory for snow means that periods
of snow will cause primarily travel difficulties. Be prepared for
snow covered roads and limited visibilities... and use caution
while driving. Stay tuned to NOAA Weather Radio or your favorite
source of information for the latest updates. Additional details
can also be found at www.Weather.Gov/iln as well as on our
facebook and twitter pages.